Terminal Aerodrome Forecast
Issued by NWS

Home | Current Version | Previous Version | Text Only | Print | Product List | Glossary On
Versions: 1 2 3 4 5 6 7 8 9 10 11 12 13 14 15 16 17 18 19 20 21 22 23 24
000
FTUS43 KPAH 031725
TAFOWB
TAF
KOWB 031725Z 0318/0418 07007KT P6SM OVC250
     FM040200 05004KT P6SM OVC100
     FM040900 07005KT 4SM -RA BR FEW010 OVC040=

USA.gov is the U.S. government's official web portal to all federal, state and local government web resources and services.